Time;durP1;ratioP1;P1;durP2;ratioP2;P2;SDS_P1;SDS_P2;PMS_P1;PMS_P2;Temp;Humidity;BMP_temperature;BMP_pressure;BME280_temperature;BME280_humidity;BME280_pressure;Samples;Min_cycle;Max_cycle;Signal;HPM_P1;HPM_P2
2022/12/21 00:01:49;;;;;;;40.10;25.05;;;;;;;;;;5093137;28;20097;-78
2022/12/21 00:04:15;;;;;;;33.78;22.33;;;;;;;;;;5079690;28;20044;-79
2022/12/21 00:06:41;;;;;;;39.38;25.10;;;;;;;;;;5077100;28;20028;-78
2022/12/21 00:09:10;;;;;;;39.45;25.63;;;;;;;;;;5087460;28;20032;-80
2022/12/21 00:11:36;;;;;;;49.05;31.35;;;;;;;;;;5092895;28;20031;-79
2022/12/21 00:14:03;;;;;;;46.13;29.60;;;;;;;;;;5092851;28;20093;-80
2022/12/21 00:16:30;;;;;;;44.38;29.80;;;;;;;;;;5092680;28;20482;-78
2022/12/21 00:18:57;;;;;;;53.10;31.50;;;;;;;;;;5092865;28;20078;-79
2022/12/21 00:21:25;;;;;;;57.55;34.53;;;;;;;;;;5092727;28;20420;-80
2022/12/21 00:23:52;;;;;;;49.20;32.17;;;;;;;;;;5070855;28;20032;-79
2022/12/21 00:26:20;;;;;;;61.70;41.03;;;;;;;;;;5083362;28;20028;-80
2022/12/21 00:28:47;;;;;;;45.75;29.55;;;;;;;;;;5072420;28;20029;-78
2022/12/21 00:31:23;;;;;;;46.75;28.98;;;;;;;;;;5072355;28;20066;-79
2022/12/21 00:33:50;;;;;;;38.97;25.08;;;;;;;;;;5072162;28;20036;-79
2022/12/21 00:36:17;;;;;;;39.72;24.65;;;;;;;;;;5054275;28;20103;-79
2022/12/21 00:38:43;;;;;;;43.05;28.48;;;;;;;;;;5072215;28;20026;-80
2022/12/21 00:41:11;;;;;;;41.35;25.77;;;;;;;;;;5072152;28;20025;-78
2022/12/21 00:43:38;;;;;;;44.70;25.67;;;;;;;;;;5072284;28;20025;-79
2022/12/21 00:46:05;;;;;;;41.05;25.08;;;;;;;;;;5054014;28;20121;-80
2022/12/21 00:48:31;;;;;;;40.63;24.40;;;;;;;;;;5072432;28;20448;-80
2022/12/21 00:51:11;;;;;;;37.95;24.55;;;;;;;;;;5072298;28;20104;-78
2022/12/21 00:53:38;;;;;;;40.55;23.67;;;;;;;;;;5072249;28;20036;-79
2022/12/21 00:56:05;;;;;;;30.35;18.80;;;;;;;;;;5058079;28;20078;-80
2022/12/21 00:58:32;;;;;;;33.88;20.10;;;;;;;;;;5076426;28;20097;-80
2022/12/21 01:01:00;;;;;;;31.85;18.95;;;;;;;;;;5058073;28;20128;-78
2022/12/21 01:03:26;;;;;;;32.55;20.27;;;;;;;;;;5076297;28;20058;-78
2022/12/21 01:05:52;;;;;;;29.10;18.95;;;;;;;;;;5075981;28;20032;-80
2022/12/21 01:08:19;;;;;;;36.28;21.48;;;;;;;;;;5076236;28;20120;-79
2022/12/21 01:10:46;;;;;;;43.60;23.10;;;;;;;;;;5079425;28;20112;-80
2022/12/21 01:13:13;;;;;;;46.45;26.25;;;;;;;;;;5087021;28;20081;-79
2022/12/21 01:15:45;;;;;;;44.70;27.70;;;;;;;;;;5096339;28;20042;-78
2022/12/21 01:18:13;;;;;;;41.13;23.80;;;;;;;;;;5096099;28;20031;-80
2022/12/21 01:20:39;;;;;;;36.80;23.92;;;;;;;;;;5096115;28;20516;-79
2022/12/21 01:23:06;;;;;;;34.50;21.00;;;;;;;;;;5095947;28;20483;-80
2022/12/21 01:25:32;;;;;;;28.20;18.27;;;;;;;;;;5096119;28;20031;-80
2022/12/21 01:27:59;;;;;;;29.35;17.73;;;;;;;;;;5095681;28;20028;-79
2022/12/21 01:30:25;;;;;;;28.63;16.88;;;;;;;;;;5096069;28;20024;-79
2022/12/21 01:32:51;;;;;;;26.92;17.58;;;;;;;;;;5095696;28;20032;-79
2022/12/21 01:35:17;;;;;;;24.80;15.45;;;;;;;;;;5095805;28;20027;-78
2022/12/21 01:37:43;;;;;;;27.88;16.90;;;;;;;;;;5095712;28;20024;-78
2022/12/21 01:40:10;;;;;;;27.67;17.00;;;;;;;;;;5083119;28;20483;-80
2022/12/21 01:42:36;;;;;;;27.85;15.50;;;;;;;;;;5058036;28;20489;-79
2022/12/21 01:45:05;;;;;;;27.17;17.92;;;;;;;;;;5065393;28;20048;-78
2022/12/21 01:47:35;;;;;;;28.10;18.10;;;;;;;;;;5047721;28;20633;-80
2022/12/21 01:50:03;;;;;;;27.63;17.48;;;;;;;;;;5064670;28;20021;-80
2022/12/21 01:52:30;;;;;;;28.15;17.10;;;;;;;;;;5063534;28;20454;-80
2022/12/21 01:55:00;;;;;;;30.67;19.15;;;;;;;;;;5062301;28;20074;-80
2022/12/21 01:57:27;;;;;;;32.90;21.10;;;;;;;;;;5055278;28;20033;-80
2022/12/21 01:59:55;;;;;;;39.67;26.80;;;;;;;;;;5055076;28;20053;-78
2022/12/21 02:02:26;;;;;;;50.25;32.22;;;;;;;;;;5065364;28;20067;-80
2022/12/21 02:04:53;;;;;;;54.05;32.20;;;;;;;;;;5062277;28;20487;-80
2022/12/21 02:07:20;;;;;;;59.83;36.30;;;;;;;;;;5074928;28;20040;-80
2022/12/21 02:09:46;;;;;;;75.43;46.33;;;;;;;;;;5074941;28;20482;-79
2022/12/21 02:12:15;;;;;;;55.95;35.03;;;;;;;;;;5074807;28;20036;-79
2022/12/21 02:14:43;;;;;;;46.60;29.42;;;;;;;;;;5075016;28;20119;-78
2022/12/21 02:17:09;;;;;;;43.60;26.70;;;;;;;;;;5073966;28;20087;-79
2022/12/21 02:19:53;;;;;;;41.58;25.38;;;;;;;;;;5061845;28;20029;-79
2022/12/21 02:22:38;;;;;;;38.70;24.33;;;;;;;;;;5065574;28;20028;-79
2022/12/21 02:25:24;;;;;;;39.70;24.73;;;;;;;;;;5067452;28;20043;-79
2022/12/21 02:28:09;;;;;;;37.65;24.08;;;;;;;;;;5061632;28;20032;-79
2022/12/21 02:30:47;;;;;;;36.97;22.90;;;;;;;;;;5062967;28;20032;-79
2022/12/21 02:33:16;;;;;;;38.15;24.83;;;;;;;;;;5062197;28;20033;-79
2022/12/21 02:35:58;;;;;;;32.88;21.15;;;;;;;;;;5062434;28;20021;-79
2022/12/21 02:38:24;;;;;;;36.00;20.98;;;;;;;;;;5064925;28;20029;-79
2022/12/21 02:41:08;;;;;;;32.30;21.58;;;;;;;;;;5063138;28;20060;-80
2022/12/21 02:46:26;;;;;;;36.00;22.75;;;;;;;;;;5063031;28;19924;-78
2022/12/21 02:48:55;;;;;;;35.78;21.17;;;;;;;;;;5060934;28;20025;-79
2022/12/21 02:51:26;;;;;;;39.45;24.02;;;;;;;;;;5062686;28;20037;-80
2022/12/21 02:53:52;;;;;;;32.28;20.27;;;;;;;;;;5062228;28;20025;-79
2022/12/21 02:56:20;;;;;;;30.83;18.92;;;;;;;;;;5065069;28;20037;-77
2022/12/21 02:58:46;;;;;;;26.88;16.73;;;;;;;;;;5062305;28;20013;-80
2022/12/21 03:01:18;;;;;;;25.45;15.82;;;;;;;;;;5063775;28;20502;-80
2022/12/21 03:03:50;;;;;;;26.55;16.35;;;;;;;;;;5064317;28;20031;-78
2022/12/21 03:06:34;;;;;;;28.92;17.60;;;;;;;;;;5061259;28;20049;-78
2022/12/21 03:09:06;;;;;;;25.25;15.88;;;;;;;;;;5062142;28;20498;-79
2022/12/21 03:11:51;;;;;;;28.00;16.42;;;;;;;;;;5065304;28;20096;-78
2022/12/21 03:14:17;;;;;;;;;;;;;;;;;;5061331;28;20040;-79
2022/12/21 03:16:51;;;;;;;27.30;16.92;;;;;;;;;;5073127;28;19931;-79
2022/12/21 03:19:26;;;;;;;28.80;17.20;;;;;;;;;;5073588;28;20050;-78
2022/12/21 03:21:57;;;;;;;29.27;18.38;;;;;;;;;;5073641;28;20528;-78
2022/12/21 03:24:26;;;;;;;32.53;20.83;;;;;;;;;;5073557;28;20021;-79
2022/12/21 03:27:21;;;;;;;35.15;20.50;;;;;;;;;;5073569;28;20024;-79
2022/12/21 03:29:50;;;;;;;26.95;18.60;;;;;;;;;;5060304;28;20060;-79
2022/12/21 03:32:30;;;;;;;31.92;19.80;;;;;;;;;;5055527;28;20071;-79
2022/12/21 03:34:56;;;;;;;27.98;18.98;;;;;;;;;;5073314;28;20032;-79
2022/12/21 03:37:24;;;;;;;31.85;19.15;;;;;;;;;;5073357;28;20035;-79
2022/12/21 03:39:55;;;;;;;31.42;19.88;;;;;;;;;;5073209;28;20028;-79
2022/12/21 03:42:26;;;;;;;33.20;21.52;;;;;;;;;;5073080;28;20467;-78
2022/12/21 03:44:57;;;;;;;34.85;21.10;;;;;;;;;;5057858;28;20052;-79
2022/12/21 03:47:29;;;;;;;35.03;21.45;;;;;;;;;;5071750;28;20029;-78
2022/12/21 03:50:00;;;;;;;36.97;21.75;;;;;;;;;;5073088;28;20036;-78
2022/12/21 03:52:33;;;;;;;40.50;25.15;;;;;;;;;;5072886;28;20050;-79
2022/12/21 03:55:02;;;;;;;48.75;29.77;;;;;;;;;;5072883;28;20108;-78
2022/12/21 03:57:29;;;;;;;49.13;28.52;;;;;;;;;;5073015;28;20025;-79
2022/12/21 03:59:56;;;;;;;49.80;32.40;;;;;;;;;;5072863;28;20020;-77
2022/12/21 04:02:26;;;;;;;45.33;28.10;;;;;;;;;;5072773;28;20020;-79
2022/12/21 04:05:11;;;;;;;44.03;27.33;;;;;;;;;;5066336;28;20142;-78
2022/12/21 04:07:38;;;;;;;36.72;24.02;;;;;;;;;;5056031;28;20029;-78
2022/12/21 04:10:06;;;;;;;32.97;21.58;;;;;;;;;;5052668;28;20357;-79
2022/12/21 04:15:18;;;;;;;30.05;15.32;;;;;;;;;;5052959;28;20064;-79
2022/12/21 04:17:46;;;;;;;30.38;17.08;;;;;;;;;;5052454;28;20082;-79
2022/12/21 04:20:15;;;;;;;34.75;19.85;;;;;;;;;;5052604;28;20021;-79
2022/12/21 04:28:14;;;;;;;30.75;17.60;;;;;;;;;;5052186;28;19964;-79
2022/12/21 04:30:44;;;;;;;29.23;19.27;;;;;;;;;;5052523;28;20029;-79
2022/12/21 04:33:13;;;;;;;31.90;20.20;;;;;;;;;;5061058;28;20025;-78
2022/12/21 04:37:30;;;;;;;31.13;17.88;;;;;;;;;;5056371;28;20029;-78
2022/12/21 04:38:28;;;;;;;38.17;22.08;;;;;;;;;;5052104;28;20033;-79
2022/12/21 04:40:55;;;;;;;54.72;33.13;;;;;;;;;;5052291;28;20021;-78
2022/12/21 04:43:21;;;;;;;52.42;28.83;;;;;;;;;;5052405;28;20239;-77
2022/12/21 04:45:47;;;;;;;52.38;31.95;;;;;;;;;;5065438;28;20045;-78
2022/12/21 04:48:13;;;;;;;48.33;28.30;;;;;;;;;;5072299;28;20059;-78
2022/12/21 04:50:41;;;;;;;37.05;23.45;;;;;;;;;;5086817;28;20099;-78
2022/12/21 04:53:08;;;;;;;33.47;20.52;;;;;;;;;;5090276;28;20034;-77
2022/12/21 04:55:34;;;;;;;38.40;21.75;;;;;;;;;;5091976;28;20032;-78
2022/12/21 04:58:00;;;;;;;33.50;22.02;;;;;;;;;;5091964;28;20471;-79
2022/12/21 05:00:26;;;;;;;39.58;25.10;;;;;;;;;;5092191;28;20032;-79
2022/12/21 05:02:52;;;;;;;33.25;21.52;;;;;;;;;;5088652;28;20047;-79
2022/12/21 05:05:18;;;;;;;32.95;21.15;;;;;;;;;;5073021;28;20102;-79
2022/12/21 05:07:44;;;;;;;33.10;19.77;;;;;;;;;;5052959;28;20029;-78
2022/12/21 05:10:10;;;;;;;35.85;22.58;;;;;;;;;;5072695;28;20467;-79
2022/12/21 05:12:37;;;;;;;36.75;23.15;;;;;;;;;;5092268;28;20032;-79
2022/12/21 05:15:04;;;;;;;35.30;22.35;;;;;;;;;;5092059;28;20032;-78
2022/12/21 05:17:30;;;;;;;37.15;22.38;;;;;;;;;;5092140;28;20024;-79
2022/12/21 05:19:56;;;;;;;40.78;23.10;;;;;;;;;;5091950;28;20039;-78
2022/12/21 05:22:22;;;;;;;38.08;22.10;;;;;;;;;;5091924;28;20032;-79
2022/12/21 05:24:48;;;;;;;41.45;24.77;;;;;;;;;;5082256;28;20024;-79
2022/12/21 05:27:14;;;;;;;39.92;24.08;;;;;;;;;;5073638;28;20039;-79
2022/12/21 05:29:40;;;;;;;43.17;27.33;;;;;;;;;;5091645;28;20478;-78
2022/12/21 05:32:06;;;;;;;46.40;26.77;;;;;;;;;;5077322;28;20051;-80
2022/12/21 05:34:32;;;;;;;48.78;32.10;;;;;;;;;;5071879;28;20090;-79
2022/12/21 05:36:58;;;;;;;51.83;31.08;;;;;;;;;;5071717;28;20475;-79
2022/12/21 05:39:24;;;;;;;45.90;28.05;;;;;;;;;;5071619;28;20028;-79
2022/12/21 05:41:50;;;;;;;50.60;29.15;;;;;;;;;;5075066;28;20029;-79
2022/12/21 05:44:16;;;;;;;62.33;35.42;;;;;;;;;;5074843;28;20372;-79
2022/12/21 05:46:42;;;;;;;58.47;36.83;;;;;;;;;;5075346;28;20025;-79
2022/12/21 05:49:09;;;;;;;52.88;34.40;;;;;;;;;;5075016;28;20052;-78
2022/12/21 05:51:35;;;;;;;43.92;26.70;;;;;;;;;;5075375;28;20386;-79
2022/12/21 05:54:01;;;;;;;47.30;28.77;;;;;;;;;;5074217;28;20044;-79
2022/12/21 05:56:27;;;;;;;49.10;30.30;;;;;;;;;;5074991;28;20108;-79
2022/12/21 05:58:53;;;;;;;53.10;31.33;;;;;;;;;;5074992;28;20029;-80
2022/12/21 06:01:19;;;;;;;51.78;32.60;;;;;;;;;;5074640;28;20424;-78
2022/12/21 06:03:45;;;;;;;53.58;33.30;;;;;;;;;;5074787;28;20024;-79
2022/12/21 06:06:12;;;;;;;62.42;39.95;;;;;;;;;;5074485;28;20520;-77
2022/12/21 06:08:39;;;;;;;60.92;35.22;;;;;;;;;;5059095;28;20036;-77
2022/12/21 06:11:06;;;;;;;66.35;33.35;;;;;;;;;;5083992;28;20025;-76
2022/12/21 06:13:32;;;;;;;56.30;32.67;;;;;;;;;;5074821;28;20033;-77
2022/12/21 06:16:02;;;;;;;54.30;29.35;;;;;;;;;;5084869;28;20039;-78
2022/12/21 06:18:29;;;;;;;63.78;31.50;;;;;;;;;;5075619;28;20472;-79
2022/12/21 06:20:55;;;;;;;64.45;33.60;;;;;;;;;;5074310;28;20025;-78
2022/12/21 06:23:21;;;;;;;64.97;34.00;;;;;;;;;;5074706;28;20028;-78
2022/12/21 06:25:47;;;;;;;54.05;31.42;;;;;;;;;;5055228;28;20027;-79
2022/12/21 06:28:13;;;;;;;54.85;31.25;;;;;;;;;;5072963;28;20025;-79
2022/12/21 06:30:39;;;;;;;54.67;33.53;;;;;;;;;;5071137;28;20110;-79
2022/12/21 06:33:05;;;;;;;56.33;34.13;;;;;;;;;;5075422;28;20036;-77
2022/12/21 06:35:33;;;;;;;75.85;44.38;;;;;;;;;;5072365;28;20059;-80
2022/12/21 06:37:59;;;;;;;65.85;41.88;;;;;;;;;;5072606;28;20029;-77
2022/12/21 06:40:25;;;;;;;58.30;35.92;;;;;;;;;;5071368;28;20028;-79
2022/12/21 06:42:51;;;;;;;53.50;34.30;;;;;;;;;;5074938;28;20040;-79
2022/12/21 06:45:17;;;;;;;56.15;34.15;;;;;;;;;;5072126;28;20071;-81
2022/12/21 06:47:43;;;;;;;52.17;33.47;;;;;;;;;;5052683;28;20033;-80
2022/12/21 06:50:09;;;;;;;61.45;38.30;;;;;;;;;;5053604;28;20025;-80
2022/12/21 06:52:36;;;;;;;62.60;39.80;;;;;;;;;;5052645;28;20028;-79
2022/12/21 06:55:02;;;;;;;80.95;46.55;;;;;;;;;;5035632;28;20440;-78
2022/12/21 06:57:31;;;;;;;71.45;45.80;;;;;;;;;;5059011;28;20733;-78
2022/12/21 06:59:58;;;;;;;75.75;47.72;;;;;;;;;;5060837;28;20037;-79
2022/12/21 07:02:25;;;;;;;78.00;50.58;;;;;;;;;;5051429;28;20083;-80
2022/12/21 07:04:52;;;;;;;84.10;56.40;;;;;;;;;;5053572;28;20044;-80
2022/12/21 07:07:18;;;;;;;69.10;43.53;;;;;;;;;;5050731;28;20033;-79
2022/12/21 07:09:45;;;;;;;71.78;45.67;;;;;;;;;;5050639;28;20044;-79
2022/12/21 07:12:11;;;;;;;66.03;42.13;;;;;;;;;;5052232;28;20057;-79
2022/12/21 07:14:37;;;;;;;68.35;42.92;;;;;;;;;;5040728;28;20119;-78
2022/12/21 07:17:03;;;;;;;73.95;47.38;;;;;;;;;;5050311;28;20036;-78
2022/12/21 07:19:29;;;;;;;80.22;49.83;;;;;;;;;;5057218;28;20029;-79
2022/12/21 07:21:55;;;;;;;93.03;64.88;;;;;;;;;;5049843;28;20097;-80
2022/12/21 07:24:21;;;;;;;194.13;117.03;;;;;;;;;;5050427;28;20051;-82
2022/12/21 07:26:49;;;;;;;148.35;71.00;;;;;;;;;;5049924;28;20069;-80
2022/12/21 07:29:15;;;;;;;61.28;37.65;;;;;;;;;;5054016;28;20395;-81
2022/12/21 07:31:41;;;;;;;63.70;38.83;;;;;;;;;;5058411;28;20029;-80
2022/12/21 07:34:07;;;;;;;193.32;103.28;;;;;;;;;;5052654;28;20033;-83
2022/12/21 07:36:33;;;;;;;160.57;80.30;;;;;;;;;;5047542;28;20037;-82
2022/12/21 07:38:59;;;;;;;143.48;78.75;;;;;;;;;;5050641;28;20136;-81
2022/12/21 07:41:25;;;;;;;77.07;47.88;;;;;;;;;;5050192;28;20032;-80
2022/12/21 07:43:51;;;;;;;77.60;48.78;;;;;;;;;;5068712;28;20036;-80
2022/12/21 07:46:18;;;;;;;98.50;61.28;;;;;;;;;;5076220;28;20127;-79
2022/12/21 07:48:44;;;;;;;116.28;73.88;;;;;;;;;;5072011;28;20037;-78
2022/12/21 07:51:10;;;;;;;113.82;73.28;;;;;;;;;;5070893;28;20105;-80
2022/12/21 07:53:36;;;;;;;109.15;68.75;;;;;;;;;;5070967;28;20047;-79
2022/12/21 07:56:04;;;;;;;113.00;68.65;;;;;;;;;;5064322;28;20075;-78
2022/12/21 07:58:30;;;;;;;121.88;69.18;;;;;;;;;;5057757;28;20036;-78
2022/12/21 08:01:04;;;;;;;115.15;66.45;;;;;;;;;;5054731;28;20031;-79
2022/12/21 08:03:30;;;;;;;120.20;68.30;;;;;;;;;;5071499;28;20031;-79
2022/12/21 08:05:56;;;;;;;148.57;76.15;;;;;;;;;;5072314;28;20035;-80
2022/12/21 08:08:22;;;;;;;144.60;76.60;;;;;;;;;;5071333;28;20804;-79
2022/12/21 08:10:48;;;;;;;148.85;74.82;;;;;;;;;;5052179;28;20099;-77
2022/12/21 08:13:16;;;;;;;129.13;71.60;;;;;;;;;;5069134;28;20468;-81
2022/12/21 08:15:42;;;;;;;145.43;80.45;;;;;;;;;;5065576;28;20082;-76
2022/12/21 08:18:08;;;;;;;149.35;81.85;;;;;;;;;;5070563;28;20040;-77
2022/12/21 08:20:34;;;;;;;194.88;100.00;;;;;;;;;;5072011;28;20024;-78
2022/12/21 08:23:00;;;;;;;168.70;95.22;;;;;;;;;;5070837;28;20036;-78
2022/12/21 08:25:26;;;;;;;147.45;83.53;;;;;;;;;;5076492;28;20102;-71
2022/12/21 08:27:52;;;;;;;135.23;80.45;;;;;;;;;;5070936;28;20045;-76
2022/12/21 08:30:18;;;;;;;96.22;53.72;;;;;;;;;;5070929;28;20483;-78
2022/12/21 08:32:44;;;;;;;69.07;40.15;;;;;;;;;;5070518;28;20043;-77
2022/12/21 08:35:10;;;;;;;77.03;38.78;;;;;;;;;;5070858;28;20028;-76
2022/12/21 08:37:37;;;;;;;82.05;41.10;;;;;;;;;;5067770;28;20357;-76
2022/12/21 08:40:03;;;;;;;86.80;43.60;;;;;;;;;;5069934;28;20045;-76
2022/12/21 08:42:29;;;;;;;73.18;42.45;;;;;;;;;;5065748;28;20021;-78
2022/12/21 08:44:55;;;;;;;96.70;52.88;;;;;;;;;;5072435;28;20045;-78
2022/12/21 08:47:21;;;;;;;78.50;45.50;;;;;;;;;;5068779;28;20087;-79
2022/12/21 08:49:47;;;;;;;91.05;56.72;;;;;;;;;;5071218;28;20048;-77
2022/12/21 08:52:14;;;;;;;70.43;43.38;;;;;;;;;;5071750;28;20494;-78
2022/12/21 08:54:40;;;;;;;123.13;62.05;;;;;;;;;;5074791;28;20036;-77
2022/12/21 08:57:06;;;;;;;88.00;48.35;;;;;;;;;;5079896;28;20402;-79
2022/12/21 08:59:32;;;;;;;385.58;106.82;;;;;;;;;;5068352;28;20040;-78
2022/12/21 09:01:58;;;;;;;340.55;114.72;;;;;;;;;;5069159;28;20426;-80
2022/12/21 09:04:24;;;;;;;259.70;99.32;;;;;;;;;;5069408;28;20033;-81
2022/12/21 09:06:50;;;;;;;59.92;32.50;;;;;;;;;;5067681;28;20051;-78
2022/12/21 09:09:16;;;;;;;43.28;26.52;;;;;;;;;;5070479;28;20048;-77
2022/12/21 09:11:42;;;;;;;62.67;30.90;;;;;;;;;;5069181;28;20133;-78
2022/12/21 09:14:08;;;;;;;60.78;33.75;;;;;;;;;;5066584;28;20647;-78
2022/12/21 09:16:34;;;;;;;53.65;28.73;;;;;;;;;;5071221;28;20024;-78
2022/12/21 09:19:00;;;;;;;62.20;29.83;;;;;;;;;;5084941;28;20042;-77
2022/12/21 09:21:27;;;;;;;43.70;25.15;;;;;;;;;;5077449;28;20052;-77
2022/12/21 09:23:53;;;;;;;41.80;23.52;;;;;;;;;;5071221;28;20024;-77
2022/12/21 09:26:19;;;;;;;36.95;21.92;;;;;;;;;;5056266;28;20037;-80
2022/12/21 09:28:45;;;;;;;30.00;17.30;;;;;;;;;;5073398;28;20028;-78
2022/12/21 09:31:17;;;;;;;27.42;18.23;;;;;;;;;;5055862;28;20033;-78
2022/12/21 09:33:46;;;;;;;34.17;20.38;;;;;;;;;;5072645;28;20368;-78
2022/12/21 09:36:15;;;;;;;35.13;20.13;;;;;;;;;;5056940;28;20035;-80
2022/12/21 09:38:41;;;;;;;29.85;19.35;;;;;;;;;;5071168;28;20052;-80
2022/12/21 09:41:07;;;;;;;28.25;18.33;;;;;;;;;;5070433;28;20043;-79
2022/12/21 09:43:51;;;;;;;25.58;14.95;;;;;;;;;;5076926;28;20107;-80
2022/12/21 09:46:18;;;;;;;28.67;16.45;;;;;;;;;;5056692;28;20078;-80
2022/12/21 09:48:54;;;;;;;27.13;17.35;;;;;;;;;;5059984;28;20025;-81
2022/12/21 09:51:25;;;;;;;38.92;20.20;;;;;;;;;;5037182;28;20130;-80
2022/12/21 09:54:10;;;;;;;25.23;15.88;;;;;;;;;;5062720;28;20044;-79
2022/12/21 09:56:36;;;;;;;;;;;;;;;;;;5061667;28;20033;-83
2022/12/21 09:59:04;;;;;;;57.83;31.10;;;;;;;;;;5064866;28;19908;-79
2022/12/21 10:01:32;;;;;;;192.73;125.65;;;;;;;;;;5059931;28;20028;-79
2022/12/21 10:04:13;;;;;;;51.45;34.47;;;;;;;;;;5041900;28;20032;-78
2022/12/21 10:06:58;;;;;;;32.45;23.20;;;;;;;;;;5053292;28;20056;-81
2022/12/21 10:09:32;;;;;;;23.55;16.83;;;;;;;;;;5055120;28;20040;-80
2022/12/21 10:12:02;;;;;;;24.20;15.73;;;;;;;;;;5058666;28;20036;-78
2022/12/21 10:14:35;;;;;;;23.70;15.32;;;;;;;;;;5054715;28;20502;-79
2022/12/21 10:17:12;;;;;;;24.05;16.30;;;;;;;;;;5058300;28;20384;-80
2022/12/21 10:19:56;;;;;;;20.88;14.65;;;;;;;;;;5057491;28;20032;-76
2022/12/21 10:22:41;;;;;;;26.13;15.90;;;;;;;;;;5060495;28;20093;-76
2022/12/21 10:25:24;;;;;;;27.90;17.52;;;;;;;;;;5039773;28;20405;-78
2022/12/21 10:27:52;;;;;;;25.42;15.85;;;;;;;;;;5056350;28;20111;-78
2022/12/21 10:30:19;;;;;;;74.80;45.25;;;;;;;;;;5057419;28;20025;-79
2022/12/21 10:32:48;;;;;;;29.33;20.63;;;;;;;;;;5046195;28;20100;-77
2022/12/21 10:35:17;;;;;;;25.33;17.33;;;;;;;;;;5059291;28;20063;-77
2022/12/21 10:37:47;;;;;;;22.85;14.55;;;;;;;;;;5063721;28;20031;-78
2022/12/21 10:40:14;;;;;;;26.00;16.58;;;;;;;;;;5060966;28;20364;-78
2022/12/21 10:42:42;;;;;;;22.85;15.73;;;;;;;;;;5060930;28;20028;-79
2022/12/21 10:45:15;;;;;;;22.75;14.90;;;;;;;;;;5059190;28;20064;-79
2022/12/21 10:47:44;;;;;;;25.63;16.60;;;;;;;;;;5062279;28;20029;-77
2022/12/21 10:50:12;;;;;;;24.92;16.60;;;;;;;;;;5059377;28;20039;-78
2022/12/21 10:52:38;;;;;;;19.83;13.07;;;;;;;;;;5060822;28;20079;-78
2022/12/21 10:55:26;;;;;;;26.45;15.82;;;;;;;;;;5052668;28;20067;-78
2022/12/21 10:57:56;;;;;;;26.05;18.17;;;;;;;;;;5060035;28;20032;-76
2022/12/21 11:00:23;;;;;;;25.65;15.35;;;;;;;;;;5055320;28;20042;-78
2022/12/21 11:02:49;;;;;;;33.13;17.35;;;;;;;;;;5052814;28;20056;-78
2022/12/21 11:05:34;;;;;;;45.70;22.95;;;;;;;;;;5054165;28;20029;-79
2022/12/21 11:08:16;;;;;;;50.65;22.75;;;;;;;;;;5042678;28;20029;-77
2022/12/21 11:10:53;;;;;;;30.30;18.30;;;;;;;;;;5060544;28;20036;-78
2022/12/21 11:13:20;;;;;;;29.65;17.48;;;;;;;;;;5057731;28;20037;-78
2022/12/21 11:15:52;;;;;;;37.47;19.30;;;;;;;;;;5057779;28;20056;-78
2022/12/21 11:18:34;;;;;;;35.97;17.90;;;;;;;;;;5063273;28;20078;-81
2022/12/21 11:21:01;;;;;;;34.45;16.38;;;;;;;;;;5045109;28;20108;-78
2022/12/21 11:23:27;;;;;;;41.65;19.15;;;;;;;;;;5052323;28;20032;-82
2022/12/21 11:25:54;;;;;;;22.63;12.88;;;;;;;;;;5051806;28;20025;-83
2022/12/21 11:28:21;;;;;;;79.00;33.92;;;;;;;;;;5042512;28;20037;-82
2022/12/21 11:30:51;;;;;;;76.47;35.08;;;;;;;;;;5042716;28;20021;-78
2022/12/21 11:33:18;;;;;;;45.30;24.98;;;;;;;;;;5043854;28;20040;-82
2022/12/21 11:36:04;;;;;;;52.47;24.83;;;;;;;;;;5035546;28;20098;-79
2022/12/21 11:38:34;;;;;;;24.38;14.65;;;;;;;;;;5050737;28;20035;-79
2022/12/21 11:41:00;;;;;;;77.70;29.70;;;;;;;;;;5042431;28;20043;-79
2022/12/21 11:43:26;;;;;;;44.70;22.15;;;;;;;;;;5047282;28;20029;-81
2022/12/21 11:46:11;;;;;;;40.33;18.65;;;;;;;;;;5064226;28;20048;-82
2022/12/21 11:48:51;;;;;;;48.25;22.23;;;;;;;;;;5073764;28;20027;-83
2022/12/21 11:51:23;;;;;;;180.95;64.40;;;;;;;;;;5066579;28;20040;-83
2022/12/21 11:53:52;;;;;;;135.10;54.03;;;;;;;;;;5071787;28;20028;-79
2022/12/21 11:56:18;;;;;;;128.15;54.55;;;;;;;;;;5071447;28;20024;-86
2022/12/21 11:59:03;;;;;;;138.85;56.67;;;;;;;;;;5070812;28;20483;-82
2022/12/21 12:01:32;;;;;;;;;;;;;;;;;;5069404;28;20513;-83
2022/12/21 12:03:59;;;;;;;25.38;14.75;;;;;;;;;;5051208;28;19908;-80
2022/12/21 12:06:45;;;;;;;20.20;11.10;;;;;;;;;;5069222;28;20029;-81
2022/12/21 12:09:21;;;;;;;30.23;15.75;;;;;;;;;;5067517;28;20491;-82
2022/12/21 12:12:06;;;;;;;17.90;11.10;;;;;;;;;;5066970;28;20024;-81
2022/12/21 12:14:50;;;;;;;128.63;47.13;;;;;;;;;;5053330;28;20089;-80
2022/12/21 12:17:16;;;;;;;150.17;51.80;;;;;;;;;;5067679;28;20048;-82
2022/12/21 12:20:01;;;;;;;74.90;29.05;;;;;;;;;;5069337;28;20201;-81
2022/12/21 12:22:30;;;;;;;64.72;25.58;;;;;;;;;;5066392;28;20111;-81
2022/12/21 12:25:14;;;;;;;72.63;28.45;;;;;;;;;;5069912;28;20025;-83
2022/12/21 12:27:59;;;;;;;57.53;22.30;;;;;;;;;;5072746;28;20020;-81
2022/12/21 12:30:34;;;;;;;48.00;20.95;;;;;;;;;;5053370;28;20079;-80
2022/12/21 12:33:16;;;;;;;42.20;19.50;;;;;;;;;;5069766;28;20044;-82
2022/12/21 12:36:00;;;;;;;39.33;16.05;;;;;;;;;;5092542;28;20112;-81
2022/12/21 12:38:45;;;;;;;36.75;17.35;;;;;;;;;;5052332;28;20035;-84
2022/12/21 12:41:14;;;;;;;34.13;17.23;;;;;;;;;;5042960;28;20043;-84
2022/12/21 12:43:52;;;;;;;34.28;16.88;;;;;;;;;;5064729;28;20051;-87
2022/12/21 12:46:21;;;;;;;30.30;14.05;;;;;;;;;;5073091;28;20056;-83
2022/12/21 12:49:01;;;;;;;25.40;14.75;;;;;;;;;;5071860;28;20085;-80
2022/12/21 12:51:32;;;;;;;26.65;12.50;;;;;;;;;;5065404;28;20043;-82
2022/12/21 12:54:34;;;;;;;35.30;17.52;;;;;;;;;;5067491;28;20037;-84
2022/12/21 12:57:00;;;;;;;30.90;15.82;;;;;;;;;;5051373;28;20028;-82
2022/12/21 12:59:52;;;;;;;47.00;18.85;;;;;;;;;;5070144;28;20049;-80
2022/12/21 13:02:22;;;;;;;41.05;16.98;;;;;;;;;;5070095;28;20052;-83
2022/12/21 13:05:06;;;;;;;41.83;18.05;;;;;;;;;;5045874;28;20085;-83
2022/12/21 13:07:51;;;;;;;48.10;21.20;;;;;;;;;;5070550;28;20365;-81
2022/12/21 13:10:23;;;;;;;75.75;27.77;;;;;;;;;;5077740;28;20617;-84
2022/12/21 13:13:08;;;;;;;457.35;177.73;;;;;;;;;;5067689;28;20025;-83
2022/12/21 13:15:48;;;;;;;384.85;131.05;;;;;;;;;;5066869;28;20040;-83
2022/12/21 13:18:32;;;;;;;307.13;110.55;;;;;;;;;;5052710;28;20422;-83
2022/12/21 13:20:59;;;;;;;51.28;23.80;;;;;;;;;;5071848;28;20461;-80
2022/12/21 13:23:28;;;;;;;27.60;12.93;;;;;;;;;;5070356;28;20029;-81
2022/12/21 13:26:00;;;;;;;45.17;19.70;;;;;;;;;;5068440;28;20024;-84
2022/12/21 13:28:26;;;;;;;101.55;35.90;;;;;;;;;;5047655;28;20449;-82
2022/12/21 13:30:54;;;;;;;91.90;33.83;;;;;;;;;;5065696;28;20028;-82
2022/12/21 13:33:20;;;;;;;45.40;19.85;;;;;;;;;;5064056;28;20040;-81
2022/12/21 13:36:05;;;;;;;46.63;22.05;;;;;;;;;;5062387;28;20020;-80
2022/12/21 13:38:31;;;;;;;;;;;;;;;;;;5068956;28;20177;-85
2022/12/21 13:41:06;;;;;;;21.00;11.68;;;;;;;;;;5063703;28;19904;-82
2022/12/21 13:43:36;;;;;;;50.42;21.70;;;;;;;;;;5050998;28;20040;-81
2022/12/21 13:46:05;;;;;;;225.20;78.45;;;;;;;;;;5051122;28;20507;-85
2022/12/21 13:48:33;;;;;;;219.95;70.40;;;;;;;;;;5057339;28;20056;-82
2022/12/21 13:51:05;;;;;;;142.55;48.15;;;;;;;;;;5052995;28;20436;-80
2022/12/21 13:54:04;;;;;;;159.88;54.58;;;;;;;;;;5064983;28;20136;-85
2022/12/21 13:56:48;;;;;;;141.90;50.70;;;;;;;;;;4984535;28;20043;-80
2022/12/21 13:59:33;;;;;;;205.85;72.75;;;;;;;;;;5008622;28;20037;-82
2022/12/21 14:02:11;;;;;;;80.95;29.85;;;;;;;;;;5072164;28;20059;-80
2022/12/21 14:04:48;;;;;;;50.75;21.17;;;;;;;;;;5074764;28;20069;-77
2022/12/21 14:07:26;;;;;;;139.98;50.00;;;;;;;;;;5075007;28;20543;-80
2022/12/21 14:10:11;;;;;;;123.82;44.88;;;;;;;;;;5074032;28;20521;-79
2022/12/21 14:12:37;;;;;;;109.03;38.17;;;;;;;;;;5074465;28;20032;-79
2022/12/21 14:15:03;;;;;;;86.22;32.05;;;;;;;;;;5075102;28;20020;-79
2022/12/21 14:17:31;;;;;;;40.90;18.88;;;;;;;;;;5074561;28;20036;-78
2022/12/21 14:19:57;;;;;;;35.72;18.50;;;;;;;;;;5074060;28;20502;-78
2022/12/21 14:22:37;;;;;;;33.53;18.10;;;;;;;;;;5074993;28;20013;-77
2022/12/21 14:25:07;;;;;;;29.52;17.83;;;;;;;;;;5074465;28;20108;-84
2022/12/21 14:27:34;;;;;;;59.92;25.40;;;;;;;;;;5073556;28;20032;-81
2022/12/21 14:30:16;;;;;;;29.50;18.25;;;;;;;;;;5076414;28;20025;-78
2022/12/21 14:32:42;;;;;;;60.13;35.38;;;;;;;;;;5073771;28;20151;-79
2022/12/21 14:35:24;;;;;;;64.47;44.03;;;;;;;;;;5074608;28;20033;-82
2022/12/21 14:38:10;;;;;;;39.35;26.08;;;;;;;;;;5074632;28;20032;-84
2022/12/21 14:40:55;;;;;;;35.20;23.55;;;;;;;;;;5074242;28;20055;-82
2022/12/21 14:43:21;;;;;;;;;;;;;;;;;;5075161;28;20038;-82
2022/12/21 14:45:47;;;;;;;27.27;17.88;;;;;;;;;;5052984;28;19913;-83